Time;durP1;ratioP1;P1;durP2;ratioP2;P2;SDS_P1;SDS_P2;PMS_P1;PMS_P2;Temp;Humidity;BMP_temperature;BMP_pressure;BME280_temperature;BME280_humidity;BME280_pressure;Samples;Min_cycle;Max_cycle;Signal;HPM_P1;HPM_P2
2021/06/26 00:02:18;;;;;;;2.95;2.65;;;22.90;99.90;;;;;;5060860;28;20278;-77
2021/06/26 00:04:44;;;;;;;3.30;2.70;;;22.90;99.90;;;;;;5061187;28;20211;-76
2021/06/26 00:07:11;;;;;;;4.67;3.30;;;22.90;99.90;;;;;;5063690;28;20214;-79
2021/06/26 00:09:37;;;;;;;3.13;2.83;;;22.90;99.90;;;;;;5067528;28;20221;-77
2021/06/26 00:12:06;;;;;;;3.30;3.00;;;22.80;99.90;;;;;;5070380;28;20233;-78
2021/06/26 00:14:32;;;;;;;4.17;3.10;;;22.90;99.90;;;;;;5078843;28;20187;-77
2021/06/26 00:16:58;;;;;;;6.60;2.97;;;22.90;99.90;;;;;;5046732;28;20299;-75
2021/06/26 00:19:25;;;;;;;3.37;2.67;;;22.90;99.90;;;;;;5052684;28;20182;-76
2021/06/26 00:21:51;;;;;;;7.17;3.23;;;22.80;99.90;;;;;;5079092;28;20186;-78
2021/06/26 00:24:17;;;;;;;4.73;2.80;;;22.80;99.90;;;;;;5061699;28;20538;-78
2021/06/26 00:26:43;;;;;;;6.53;2.97;;;22.90;99.90;;;;;;5081488;28;20698;-78
2021/06/26 00:29:11;;;;;;;4.07;2.87;;;22.90;99.90;;;;;;5064299;28;20210;-76
2021/06/26 00:31:37;;;;;;;4.00;3.07;;;22.90;99.90;;;;;;5073858;28;20191;-77
2021/06/26 00:34:03;;;;;;;3.70;2.93;;;22.90;99.90;;;;;;5046288;28;20749;-75
2021/06/26 00:36:29;;;;;;;3.80;2.87;;;22.90;99.90;;;;;;5046638;28;20594;-80
2021/06/26 00:38:56;;;;;;;4.03;2.93;;;22.90;99.90;;;;;;5058145;28;20194;-77
2021/06/26 00:41:22;;;;;;;4.83;2.70;;;22.80;99.90;;;;;;5080659;28;20195;-77
2021/06/26 00:43:48;;;;;;;3.80;2.80;;;22.80;99.90;;;;;;5045732;28;20214;-76
2021/06/26 00:46:15;;;;;;;4.30;3.10;;;22.90;99.90;;;;;;5064597;28;20214;-76
2021/06/26 00:48:42;;;;;;;4.13;2.97;;;22.80;99.90;;;;;;5067092;28;20211;-76
2021/06/26 00:51:08;;;;;;;5.63;3.30;;;22.90;99.90;;;;;;5061835;28;20191;-78
2021/06/26 00:53:35;;;;;;;6.37;2.90;;;22.80;99.90;;;;;;5065349;28;20748;-77
2021/06/26 00:56:03;;;;;;;4.77;2.80;;;22.80;99.90;;;;;;5082880;28;20191;-76
2021/06/26 00:58:30;;;;;;;5.43;2.80;;;22.80;99.90;;;;;;5051513;28;20198;-78
2021/06/26 01:00:57;;;;;;;3.73;2.80;;;22.80;99.90;;;;;;5063942;28;20184;-76
2021/06/26 01:03:25;;;;;;;6.57;3.70;;;22.80;99.90;;;;;;5065623;28;20256;-77
2021/06/26 01:05:51;;;;;;;3.73;3.10;;;22.90;99.90;;;;;;5072595;28;20910;-79
2021/06/26 01:08:18;;;;;;;4.90;3.00;;;22.80;99.90;;;;;;5081165;28;20211;-76
2021/06/26 01:10:45;;;;;;;4.40;3.00;;;22.80;99.90;;;;;;5070114;28;20269;-77
2021/06/26 01:13:11;;;;;;;5.23;3.30;;;22.80;99.90;;;;;;5051440;28;20210;-76
2021/06/26 01:15:38;;;;;;;5.00;3.17;;;22.80;99.90;;;;;;5075982;28;20195;-78
2021/06/26 01:18:04;;;;;;;4.80;3.07;;;22.80;99.90;;;;;;5067973;28;20712;-78
2021/06/26 01:20:31;;;;;;;4.37;3.00;;;22.80;99.90;;;;;;5048814;28;20187;-77
2021/06/26 01:23:00;;;;;;;4.93;3.03;;;22.80;99.90;;;;;;5069406;28;20206;-76
2021/06/26 01:25:29;;;;;;;7.97;3.33;;;22.80;99.90;;;;;;5061858;28;21051;-76
2021/06/26 01:27:58;;;;;;;4.43;3.00;;;22.80;99.90;;;;;;5063470;28;20302;-79
2021/06/26 01:30:32;;;;;;;3.37;3.07;;;22.80;99.90;;;;;;5078709;28;20260;-78
2021/06/26 01:32:59;;;;;;;7.43;3.20;;;22.80;99.90;;;;;;5082261;28;20244;-76
2021/06/26 01:35:27;;;;;;;6.93;3.33;;;22.80;99.90;;;;;;5068963;28;20179;-75
2021/06/26 01:37:55;;;;;;;8.00;3.23;;;22.80;99.90;;;;;;5068787;28;20187;-75
2021/06/26 01:40:25;;;;;;;3.63;3.33;;;22.90;99.90;;;;;;5053002;28;20183;-76
2021/06/26 01:42:54;;;;;;;6.80;3.20;;;22.90;99.90;;;;;;5066079;28;20183;-78
2021/06/26 01:45:22;;;;;;;5.03;2.93;;;22.90;99.90;;;;;;5050520;28;20210;-77
2021/06/26 01:47:55;;;;;;;5.23;3.13;;;22.90;99.90;;;;;;5063483;28;20195;-77
2021/06/26 01:50:25;;;;;;;4.47;3.33;;;22.90;99.90;;;;;;5061251;28;20183;-76
2021/06/26 01:52:51;;;;;;;5.50;3.47;;;22.90;99.90;;;;;;5049649;28;20234;-77
2021/06/26 01:55:20;;;;;;;4.93;3.10;;;22.90;99.90;;;;;;5066690;28;20209;-76
2021/06/26 01:57:49;;;;;;;3.38;3.08;;;22.90;99.90;;;;;;5081233;28;20302;-78
2021/06/26 02:00:17;;;;;;;5.40;3.10;;;22.90;99.90;;;;;;5064124;28;20566;-78
2021/06/26 02:02:44;;;;;;;6.60;3.20;;;22.90;99.90;;;;;;5077371;28;20236;-76
2021/06/26 02:05:13;;;;;;;6.63;3.50;;;22.90;99.90;;;;;;5067586;28;20186;-77
2021/06/26 02:07:39;;;;;;;4.87;3.40;;;22.90;99.90;;;;;;5061373;28;20218;-79
2021/06/26 02:10:09;;;;;;;5.53;3.17;;;22.90;99.90;;;;;;5065053;28;20213;-76
2021/06/26 02:12:35;;;;;;;6.87;3.37;;;22.90;99.90;;;;;;5081161;28;20187;-76
2021/06/26 02:15:02;;;;;;;4.57;3.60;;;22.90;99.90;;;;;;5065570;28;20194;-79
2021/06/26 02:17:28;;;;;;;5.33;3.10;;;22.90;99.90;;;;;;5068739;28;20190;-77
2021/06/26 02:19:55;;;;;;;5.53;3.10;;;22.90;99.90;;;;;;5066056;28;20186;-78
2021/06/26 02:22:21;;;;;;;3.47;3.07;;;22.80;99.90;;;;;;5060631;28;20206;-77
2021/06/26 02:24:48;;;;;;;3.53;3.13;;;22.90;99.90;;;;;;5081793;28;20194;-76
2021/06/26 02:27:14;;;;;;;4.97;3.00;;;22.80;99.90;;;;;;5061347;28;20283;-77
2021/06/26 02:29:40;;;;;;;4.57;3.00;;;22.80;99.90;;;;;;5048976;28;20186;-78
2021/06/26 02:32:07;;;;;;;3.80;3.40;;;22.80;99.90;;;;;;5065102;28;20239;-77
2021/06/26 02:34:34;;;;;;;6.73;3.10;;;22.80;99.90;;;;;;5064475;28;20182;-76
2021/06/26 02:37:01;;;;;;;2.97;2.67;;;22.80;99.90;;;;;;5077199;28;20669;-76
2021/06/26 02:39:28;;;;;;;4.83;3.20;;;22.80;99.90;;;;;;5064784;28;20716;-79
2021/06/26 02:41:54;;;;;;;6.17;3.17;;;22.70;99.90;;;;;;5065152;28;20209;-77
2021/06/26 02:44:21;;;;;;;3.58;3.00;;;22.70;99.90;;;;;;5062281;28;20187;-78
2021/06/26 02:46:49;;;;;;;4.57;3.10;;;22.70;99.90;;;;;;5080872;28;20184;-78
2021/06/26 02:49:15;;;;;;;5.60;3.00;;;22.70;99.90;;;;;;5065579;28;20196;-78
2021/06/26 02:51:41;;;;;;;4.90;3.10;;;22.70;99.90;;;;;;5065609;28;20300;-78
2021/06/26 02:54:08;;;;;;;3.77;3.20;;;22.70;99.90;;;;;;5067256;28;20180;-75
2021/06/26 02:56:34;;;;;;;4.53;3.10;;;22.70;99.90;;;;;;5086034;28;20277;-77
2021/06/26 02:59:00;;;;;;;3.73;3.00;;;22.70;99.90;;;;;;5066342;28;20570;-77
2021/06/26 03:01:26;;;;;;;4.57;3.17;;;22.70;99.90;;;;;;5081433;28;20248;-76
2021/06/26 03:03:53;;;;;;;5.83;3.10;;;22.70;99.90;;;;;;5062776;28;20277;-75
2021/06/26 03:06:19;;;;;;;5.13;2.90;;;22.70;99.90;;;;;;5065553;28;20203;-75
2021/06/26 03:08:45;;;;;;;5.00;3.05;;;22.70;99.90;;;;;;5049983;28;20554;-77
2021/06/26 03:11:11;;;;;;;5.10;3.13;;;22.70;99.90;;;;;;5061622;28;20290;-75
2021/06/26 03:13:38;;;;;;;4.73;2.97;;;22.70;99.90;;;;;;5063663;28;20202;-78
2021/06/26 03:16:05;;;;;;;2.87;2.53;;;22.70;99.90;;;;;;5063441;28;20744;-77
2021/06/26 03:18:31;;;;;;;3.75;2.83;;;22.60;99.90;;;;;;5061865;28;20666;-77
2021/06/26 03:20:57;;;;;;;4.80;3.27;;;22.60;99.90;;;;;;5068898;28;20658;-76
2021/06/26 03:23:24;;;;;;;5.20;2.90;;;22.60;99.90;;;;;;5045359;28;20633;-78
2021/06/26 03:25:50;;;;;;;6.53;2.90;;;22.60;99.90;;;;;;5064759;28;20183;-78
2021/06/26 03:28:17;;;;;;;3.60;2.90;;;22.70;99.90;;;;;;5047616;28;20222;-77
2021/06/26 03:30:43;;;;;;;4.53;2.87;;;22.70;99.90;;;;;;5062245;28;20195;-77
2021/06/26 03:33:10;;;;;;;3.40;2.90;;;22.70;99.90;;;;;;5061790;28;20187;-77
2021/06/26 03:35:36;;;;;;;3.33;2.70;;;22.70;99.90;;;;;;5077687;28;20596;-79
2021/06/26 03:38:03;;;;;;;4.43;3.00;;;22.70;99.90;;;;;;5071857;28;20186;-77
2021/06/26 03:40:29;;;;;;;6.22;3.00;;;22.70;99.90;;;;;;5059150;28;20218;-77
2021/06/26 03:42:55;;;;;;;5.33;3.10;;;22.70;99.90;;;;;;5073458;28;20198;-77
2021/06/26 03:45:22;;;;;;;4.13;2.90;;;22.70;99.90;;;;;;5063429;28;20705;-75
2021/06/26 03:47:48;;;;;;;11.00;3.33;;;22.70;99.90;;;;;;5077333;28;20215;-77
2021/06/26 03:50:15;;;;;;;4.90;3.43;;;22.70;99.90;;;;;;5061001;28;20191;-77
2021/06/26 03:52:41;;;;;;;4.57;2.80;;;22.70;99.90;;;;;;5095167;28;20192;-79
2021/06/26 03:55:08;;;;;;;4.37;3.40;;;22.70;99.90;;;;;;5081765;28;20536;-78
2021/06/26 03:57:35;;;;;;;4.20;3.20;;;22.70;99.90;;;;;;5070054;28;20191;-77
2021/06/26 04:00:03;;;;;;;4.90;3.10;;;22.80;99.90;;;;;;5063831;28;20195;-77
2021/06/26 04:02:29;;;;;;;8.13;3.03;;;22.80;99.90;;;;;;5061817;28;20183;-78
2021/06/26 04:04:56;;;;;;;7.23;3.13;;;22.80;99.90;;;;;;5061840;28;20198;-77
2021/06/26 04:07:22;;;;;;;5.83;3.00;;;22.80;99.90;;;;;;5060811;28;20555;-76
2021/06/26 04:09:48;;;;;;;5.65;3.00;;;22.80;99.90;;;;;;5061564;28;20658;-77
2021/06/26 04:12:15;;;;;;;3.45;3.15;;;22.80;99.90;;;;;;5060302;28;20206;-76
2021/06/26 04:14:41;;;;;;;6.17;2.87;;;22.80;99.90;;;;;;5046341;28;20314;-79
2021/06/26 04:17:07;;;;;;;3.93;3.00;;;22.90;99.90;;;;;;5064706;28;20187;-77
2021/06/26 04:19:34;;;;;;;4.03;2.97;;;22.90;99.90;;;;;;5051529;28;20376;-75
2021/06/26 04:22:00;;;;;;;4.07;3.42;;;22.90;99.90;;;;;;5059504;28;20186;-78
2021/06/26 04:24:27;;;;;;;4.43;3.08;;;23.00;99.90;;;;;;5059756;28;20593;-76
2021/06/26 04:26:53;;;;;;;4.18;3.15;;;23.00;99.90;;;;;;5074671;28;20199;-77
2021/06/26 04:29:23;;;;;;;4.10;2.92;;;23.00;99.90;;;;;;5062300;28;20203;-75
2021/06/26 04:31:50;;;;;;;5.32;3.53;;;23.00;99.90;;;;;;5044665;28;20286;-76
2021/06/26 04:34:17;;;;;;;3.30;2.90;;;23.00;99.90;;;;;;5058647;28;20195;-81
2021/06/26 04:36:44;;;;;;;3.58;2.85;;;23.10;99.90;;;;;;5057135;28;20796;-77
2021/06/26 04:39:10;;;;;;;4.13;3.10;;;23.10;99.90;;;;;;5077576;28;20820;-76
2021/06/26 04:41:38;;;;;;;5.38;3.10;;;23.10;99.90;;;;;;5057741;28;20197;-79
2021/06/26 04:44:06;;;;;;;4.00;3.10;;;23.20;99.90;;;;;;5068804;28;20206;-78
2021/06/26 04:46:33;;;;;;;4.57;3.40;;;23.20;99.90;;;;;;5080881;28;20580;-78
2021/06/26 04:49:00;;;;;;;4.68;3.30;;;23.20;99.90;;;;;;5062871;28;20317;-79
2021/06/26 04:51:26;;;;;;;3.67;3.20;;;23.20;99.90;;;;;;5061997;28;20929;-76
2021/06/26 04:53:52;;;;;;;8.70;3.30;;;23.30;99.90;;;;;;5064659;28;20192;-78
2021/06/26 04:56:19;;;;;;;5.90;3.15;;;23.30;99.90;;;;;;5060710;28;20209;-79
2021/06/26 04:58:45;;;;;;;4.80;3.17;;;23.30;99.90;;;;;;5062648;28;20249;-78
2021/06/26 05:01:12;;;;;;;4.70;3.30;;;23.40;99.90;;;;;;5045222;28;21013;-76
2021/06/26 05:03:40;;;;;;;5.30;3.40;;;23.40;99.90;;;;;;5061204;28;20270;-79
2021/06/26 05:06:06;;;;;;;6.10;3.22;;;23.80;99.90;;;;;;5073713;28;20191;-78
2021/06/26 05:08:33;;;;;;;6.15;3.33;;;24.00;99.90;;;;;;5076699;28;20212;-78
2021/06/26 05:10:59;;;;;;;3.90;3.20;;;23.80;99.90;;;;;;5043241;28;20825;-75
2021/06/26 05:13:26;;;;;;;5.85;3.30;;;23.70;99.90;;;;;;5047790;28;20214;-78
2021/06/26 05:15:52;;;;;;;5.05;3.25;;;23.90;99.90;;;;;;5077427;28;20758;-80
2021/06/26 05:18:18;;;;;;;3.83;3.22;;;23.90;99.90;;;;;;5075971;28;20206;-76
2021/06/26 05:20:48;;;;;;;3.97;3.20;;;24.30;99.90;;;;;;5074692;28;20593;-76
2021/06/26 05:23:22;;;;;;;5.10;3.20;;;24.30;99.90;;;;;;5062070;28;20904;-79
2021/06/26 05:25:49;;;;;;;6.28;3.42;;;24.20;99.90;;;;;;5062571;28;20301;-79
2021/06/26 05:28:15;;;;;;;3.90;3.53;;;24.30;99.90;;;;;;5044670;28;20218;-78
2021/06/26 05:30:42;;;;;;;5.03;3.30;;;24.40;99.90;;;;;;5064152;28;20280;-78
2021/06/26 05:33:09;;;;;;;8.13;3.40;;;24.80;99.90;;;;;;5067877;28;20197;-78
2021/06/26 05:35:35;;;;;;;4.68;3.28;;;25.10;99.90;;;;;;5062510;28;20195;-79
2021/06/26 05:38:02;;;;;;;3.97;3.40;;;25.20;99.90;;;;;;5076802;28;20233;-79
2021/06/26 05:40:29;;;;;;;3.85;3.15;;;25.40;99.90;;;;;;5064021;28;20205;-75
2021/06/26 05:42:56;;;;;;;7.35;3.50;;;25.30;99.90;;;;;;5083193;28;20245;-75
2021/06/26 05:45:23;;;;;;;6.45;3.92;;;25.20;99.90;;;;;;5064916;28;20193;-77
2021/06/26 05:47:49;;;;;;;8.00;4.20;;;25.50;99.90;;;;;;5065285;28;20218;-76
2021/06/26 05:50:16;;;;;;;8.70;4.32;;;25.60;99.90;;;;;;5062936;28;20179;-78
2021/06/26 05:52:52;;;;;;;9.57;4.60;;;25.80;99.90;;;;;;5061567;28;20644;-75
2021/06/26 05:55:19;;;;;;;13.82;4.30;;;25.80;99.90;;;;;;5064501;28;20283;-79
2021/06/26 05:57:47;;;;;;;8.73;4.38;;;25.90;99.90;;;;;;5067968;28;20220;-78
2021/06/26 06:00:16;;;;;;;8.23;4.57;;;25.90;99.90;;;;;;5062397;28;20292;-80
2021/06/26 06:02:44;;;;;;;6.68;4.53;;;26.00;99.90;;;;;;5068882;28;20328;-79
2021/06/26 06:05:15;;;;;;;10.07;4.45;;;25.90;99.90;;;;;;5064841;28;20271;-79
2021/06/26 06:07:43;;;;;;;8.52;4.30;;;25.90;99.90;;;;;;5066175;28;20607;-79
2021/06/26 06:10:15;;;;;;;8.45;4.57;;;25.90;99.90;;;;;;5062289;28;20222;-78
2021/06/26 06:12:43;;;;;;;8.27;4.90;;;26.00;99.90;;;;;;5064377;28;20210;-77
2021/06/26 06:15:12;;;;;;;7.00;4.47;;;26.10;99.90;;;;;;5068788;28;20190;-78
2021/06/26 06:17:39;;;;;;;10.48;4.53;;;26.00;99.90;;;;;;5046707;28;20199;-77
2021/06/26 06:20:08;;;;;;;9.73;4.88;;;26.00;99.90;;;;;;5065703;28;20190;-79
2021/06/26 06:22:35;;;;;;;7.72;4.18;;;26.20;99.90;;;;;;5064410;28;20206;-77
2021/06/26 06:25:06;;;;;;;9.18;4.18;;;26.20;99.90;;;;;;5070243;28;20642;-75
2021/06/26 06:27:35;;;;;;;6.78;4.30;;;26.20;99.90;;;;;;5061493;28;20330;-74
2021/06/26 06:30:03;;;;;;;7.40;3.97;;;26.20;99.90;;;;;;5065353;28;20195;-77
2021/06/26 06:32:31;;;;;;;6.90;3.92;;;25.90;99.90;;;;;;5063838;28;20851;-75
2021/06/26 06:34:57;;;;;;;5.70;3.72;;;25.70;99.90;;;;;;5062844;28;20182;-74
2021/06/26 06:37:24;;;;;;;8.23;3.80;;;25.70;99.90;;;;;;5067024;28;20213;-78
2021/06/26 06:39:51;;;;;;;5.18;3.78;;;26.20;99.90;;;;;;5080984;28;20187;-77
2021/06/26 06:42:20;;;;;;;7.95;3.95;;;26.00;99.90;;;;;;5064171;28;20199;-76
2021/06/26 06:44:47;;;;;;;6.85;4.05;;;26.00;99.90;;;;;;5064411;28;20205;-77
2021/06/26 06:47:13;;;;;;;5.15;4.40;;;26.30;99.90;;;;;;5079670;28;20205;-76
2021/06/26 06:49:40;;;;;;;8.45;4.30;;;26.50;99.90;;;;;;5046128;28;20278;-77
2021/06/26 06:52:07;;;;;;;8.73;4.30;;;26.80;99.90;;;;;;5061037;28;20579;-78
2021/06/26 06:54:34;;;;;;;7.88;4.53;;;26.70;99.90;;;;;;5065130;28;20524;-77
2021/06/26 06:57:00;;;;;;;11.38;4.22;;;27.00;99.90;;;;;;5065791;28;20834;-77
2021/06/26 06:59:27;;;;;;;6.35;4.32;;;27.00;99.90;;;;;;5046807;28;20192;-77
2021/06/26 07:01:54;;;;;;;5.60;4.00;;;27.20;99.90;;;;;;5062130;28;20194;-77
2021/06/26 07:04:20;;;;;;;7.93;3.80;;;27.00;99.90;;;;;;5066680;28;20203;-77
2021/06/26 07:06:47;;;;;;;5.35;4.47;;;27.20;99.90;;;;;;5069200;28;20191;-77
2021/06/26 07:09:13;;;;;;;6.40;4.57;;;27.10;99.90;;;;;;5064339;28;20211;-76
2021/06/26 07:11:42;;;;;;;6.57;4.30;;;27.30;99.90;;;;;;5061737;28;20182;-77
2021/06/26 07:14:10;;;;;;;10.00;4.55;;;27.10;99.90;;;;;;5081034;28;20190;-76
2021/06/26 07:16:37;;;;;;;8.23;4.35;;;27.30;99.90;;;;;;5062424;28;20175;-77
2021/06/26 07:19:04;;;;;;;8.63;4.75;;;27.40;99.90;;;;;;5067663;28;20225;-77
2021/06/26 07:21:33;;;;;;;7.25;4.35;;;27.60;99.90;;;;;;5079404;28;20574;-77
2021/06/26 07:23:59;;;;;;;5.43;4.13;;;27.80;99.90;;;;;;5060543;28;20189;-77
2021/06/26 07:26:25;;;;;;;7.63;4.35;;;27.90;99.90;;;;;;5063008;28;20210;-78
2021/06/26 07:28:52;;;;;;;6.90;4.18;;;27.80;99.90;;;;;;5076835;28;20214;-77
2021/06/26 07:31:19;;;;;;;8.70;4.00;;;27.90;99.90;;;;;;5044492;28;20183;-77
2021/06/26 07:33:45;;;;;;;32.92;5.00;;;27.90;99.90;;;;;;5081581;28;20652;-77
2021/06/26 07:36:12;;;;;;;12.73;4.30;;;27.90;99.90;;;;;;5042638;28;20734;-77
2021/06/26 07:38:40;;;;;;;6.80;3.75;;;27.80;99.90;;;;;;5061020;28;20278;-78
2021/06/26 07:41:10;;;;;;;6.18;3.90;;;28.10;99.90;;;;;;5066168;28;20268;-78
2021/06/26 07:43:37;;;;;;;7.57;3.90;;;28.10;99.90;;;;;;5046295;28;20199;-76
2021/06/26 07:46:06;;;;;;;9.70;4.00;;;28.30;99.90;;;;;;5062359;28;20191;-77
2021/06/26 07:48:33;;;;;;;7.47;4.13;;;28.40;99.90;;;;;;5060335;28;20287;-78
2021/06/26 07:51:00;;;;;;;6.53;3.53;;;28.50;99.90;;;;;;5063198;28;20305;-76
2021/06/26 07:53:27;;;;;;;10.05;3.78;;;28.40;99.90;;;;;;5078038;28;20227;-77
2021/06/26 07:55:54;;;;;;;7.90;3.92;;;28.50;99.90;;;;;;5066106;28;20193;-77
2021/06/26 07:58:26;;;;;;;13.48;3.80;;;28.60;99.90;;;;;;5059549;28;20201;-77
2021/06/26 08:00:55;;;;;;;7.47;3.85;;;28.70;99.90;;;;;;5060972;28;20294;-77
2021/06/26 08:03:25;;;;;;;7.22;3.45;;;28.70;99.90;;;;;;5063564;28;20247;-77
2021/06/26 08:05:53;;;;;;;6.72;3.50;;;28.80;99.90;;;;;;5081384;28;20204;-77
2021/06/26 08:08:21;;;;;;;6.75;3.40;;;29.00;99.90;;;;;;5069295;28;20214;-77
2021/06/26 08:10:49;;;;;;;7.22;3.58;;;29.10;99.90;;;;;;5065091;28;20187;-78
2021/06/26 08:13:16;;;;;;;6.97;3.83;;;29.20;99.90;;;;;;5084403;28;20186;-77
2021/06/26 08:15:45;;;;;;;8.48;3.88;;;29.30;99.90;;;;;;5078209;28;20198;-78
2021/06/26 08:18:13;;;;;;;7.05;3.53;;;29.40;99.90;;;;;;5061459;28;20757;-77
2021/06/26 08:20:41;;;;;;;6.60;3.25;;;29.50;99.90;;;;;;5064279;28;20621;-77
2021/06/26 08:23:09;;;;;;;5.53;3.88;;;29.50;99.90;;;;;;5081084;28;20717;-78
2021/06/26 08:25:35;;;;;;;8.85;3.53;;;29.50;99.90;;;;;;5059326;28;20183;-77
2021/06/26 08:28:02;;;;;;;5.65;3.30;;;29.50;99.90;;;;;;5042124;28;20210;-78
2021/06/26 08:30:30;;;;;;;5.50;3.30;;;29.60;99.90;;;;;;5065550;28;20260;-79
2021/06/26 08:33:00;;;;;;;4.68;3.30;;;29.50;99.90;;;;;;5064783;28;20178;-77
2021/06/26 08:35:36;;;;;;;7.68;3.70;;;29.50;99.90;;;;;;5076999;28;20195;-76
2021/06/26 08:38:04;;;;;;;9.57;3.45;;;29.70;99.90;;;;;;5061803;28;20647;-77
2021/06/26 08:40:31;;;;;;;10.50;3.60;;;29.80;99.90;;;;;;5051559;28;20191;-77
2021/06/26 08:43:00;;;;;;;8.60;3.67;;;29.80;99.90;;;;;;5070172;28;20296;-77
2021/06/26 08:45:27;;;;;;;9.52;3.78;;;29.80;99.90;;;;;;5045456;28;20804;-78
2021/06/26 08:47:56;;;;;;;6.55;3.53;;;29.90;99.90;;;;;;5059454;28;20302;-77
2021/06/26 08:50:27;;;;;;;4.45;3.10;;;29.90;99.90;;;;;;5069458;28;20858;-77
2021/06/26 08:52:54;;;;;;;7.30;3.35;;;29.90;99.90;;;;;;5077322;28;20684;-76
2021/06/26 08:55:22;;;;;;;11.00;3.50;;;30.00;99.90;;;;;;5062146;28;20190;-78
2021/06/26 08:57:49;;;;;;;13.57;3.60;;;30.00;99.90;;;;;;5075922;28;20188;-77
2021/06/26 09:00:24;;;;;;;5.90;3.00;;;30.10;99.90;;;;;;5060243;28;20198;-76
2021/06/26 09:03:17;;;;;;;8.05;3.78;;;30.00;99.90;;;;;;5065433;28;20826;-76
2021/06/26 09:05:46;;;;;;;8.57;3.30;;;30.10;99.90;;;;;;5053748;28;21117;-78
2021/06/26 09:08:21;;;;;;;7.70;3.53;;;30.30;99.90;;;;;;5064723;28;20304;-76
2021/06/26 09:10:51;;;;;;;6.05;3.03;;;30.20;99.90;;;;;;5055161;28;20217;-76
2021/06/26 09:13:33;;;;;;;5.03;3.00;;;30.40;99.90;;;;;;5062638;28;20183;-76
2021/06/26 09:16:15;;;;;;;11.95;3.47;;;30.50;99.90;;;;;;5082040;28;20182;-77
2021/06/26 09:18:47;;;;;;;7.50;3.20;;;30.60;99.90;;;;;;5065903;28;20226;-78
2021/06/26 09:21:31;;;;;;;11.27;3.35;;;30.70;99.90;;;;;;5069574;28;20213;-77
2021/06/26 09:24:08;;;;;;;9.88;3.10;;;30.70;99.90;;;;;;5069508;28;20679;-78
2021/06/26 09:26:41;;;;;;;4.82;2.90;;;30.80;99.90;;;;;;5063977;28;20313;-77
2021/06/26 09:29:14;;;;;;;5.55;2.90;;;30.90;99.90;;;;;;5047504;28;20224;-77
2021/06/26 09:32:43;;;;;;;7.03;3.28;;;30.90;99.90;;;;;;5066776;28;20183;-77
2021/06/26 09:35:16;;;;;;;4.63;2.78;;;31.10;99.90;;;;;;5077538;28;20186;-76
2021/06/26 09:37:44;;;;;;;10.30;3.00;;;31.10;99.90;;;;;;5063771;28;20694;-76
2021/06/26 09:40:13;;;;;;;6.45;3.20;;;31.30;99.90;;;;;;5066687;28;20269;-77
2021/06/26 09:42:40;;;;;;;9.45;3.13;;;31.40;99.90;;;;;;5074249;28;20635;-76
2021/06/26 09:45:12;;;;;;;8.48;3.35;;;31.40;99.90;;;;;;5071563;28;20406;-77
2021/06/26 09:47:45;;;;;;;5.32;3.08;;;31.50;99.90;;;;;;5065692;28;20217;-77
2021/06/26 09:50:20;;;;;;;9.85;3.13;;;31.60;99.90;;;;;;5064698;28;20579;-76
2021/06/26 09:52:52;;;;;;;5.57;2.72;;;31.70;99.90;;;;;;5063332;28;20273;-77
2021/06/26 09:55:27;;;;;;;6.80;2.83;;;31.80;99.90;;;;;;5065158;28;20187;-76
2021/06/26 09:57:56;;;;;;;4.63;2.80;;;31.90;99.90;;;;;;5053987;28;20179;-78
2021/06/26 10:00:26;;;;;;;4.38;2.65;;;32.00;99.90;;;;;;5066473;28;20191;-77
2021/06/26 10:02:53;;;;;;;3.70;2.80;;;32.00;99.90;;;;;;5063994;28;20187;-78
2021/06/26 10:05:20;;;;;;;3.70;2.53;;;32.10;99.90;;;;;;5064226;28;20679;-78
2021/06/26 10:07:48;;;;;;;6.20;2.67;;;32.10;99.90;;;;;;5066543;28;20207;-78
2021/06/26 10:10:20;;;;;;;7.43;2.67;;;32.30;99.90;;;;;;5064905;28;20206;-78
2021/06/26 10:12:48;;;;;;;6.43;3.05;;;32.40;99.90;;;;;;5083706;28;20639;-78
2021/06/26 10:15:17;;;;;;;8.35;3.10;;;32.40;99.90;;;;;;5063936;28;20194;-79
2021/06/26 10:17:44;;;;;;;8.38;2.45;;;32.50;99.90;;;;;;5053042;28;20862;-77
2021/06/26 10:20:14;;;;;;;8.48;2.67;;;32.50;99.90;;;;;;5050659;28;20210;-78
2021/06/26 10:23:03;;;;;;;5.68;2.58;;;32.60;98.10;;;;;;5071679;28;20209;-78
2021/06/26 10:25:36;;;;;;;8.80;2.72;;;32.60;99.70;;;;;;5064715;28;20203;-76
2021/06/26 10:28:16;;;;;;;6.70;2.80;;;32.40;99.90;;;;;;5068675;28;20215;-78
2021/06/26 10:31:00;;;;;;;5.28;3.00;;;32.80;99.90;;;;;;5081643;28;20711;-79
2021/06/26 10:33:30;;;;;;;5.85;3.00;;;32.90;99.90;;;;;;5081615;28;20278;-79
2021/06/26 10:36:00;;;;;;;7.60;2.70;;;32.90;99.90;;;;;;5053361;28;20190;-76
2021/06/26 10:38:38;;;;;;;13.23;2.90;;;33.00;99.90;;;;;;5061864;28;20183;-77
2021/06/26 10:41:20;;;;;;;7.63;2.80;;;33.10;99.90;;;;;;5067029;28;20186;-79
2021/06/26 10:43:58;;;;;;;4.75;3.03;;;33.10;99.90;;;;;;5064953;28;20277;-76
2021/06/26 10:46:25;;;;;;;7.40;2.95;;;32.90;99.90;;;;;;5058737;28;20186;-77
2021/06/26 10:49:02;;;;;;;5.60;2.85;;;33.10;99.90;;;;;;5065232;28;20214;-77
2021/06/26 10:51:33;;;;;;;7.15;2.80;;;33.00;99.90;;;;;;5065788;28;20282;-77
2021/06/26 10:55:27;;;;;;;5.05;2.95;;;33.10;99.90;;;;;;5087512;28;20178;-76
2021/06/26 10:57:54;;;;;;;5.05;2.85;;;33.00;99.90;;;;;;4975535;28;20193;-79
2021/06/26 11:00:32;;;;;;;5.32;2.70;;;33.00;99.90;;;;;;5059967;28;20187;-78
2021/06/26 11:03:01;;;;;;;14.15;3.15;;;32.90;99.90;;;;;;5067877;28;20252;-78
2021/06/26 11:05:34;;;;;;;6.50;2.80;;;33.10;99.90;;;;;;5066362;28;20191;-78
2021/06/26 11:08:16;;;;;;;6.25;2.80;;;33.10;99.90;;;;;;5064685;28;20206;-77
2021/06/26 11:10:56;;;;;;;5.10;2.88;;;33.10;99.90;;;;;;5061505;28;20586;-78
2021/06/26 11:13:29;;;;;;;5.53;2.85;;;33.00;99.90;;;;;;5060982;28;20189;-78
2021/06/26 11:16:06;;;;;;;12.23;2.70;;;33.10;99.90;;;;;;5075995;28;20191;-77
2021/06/26 11:18:35;;;;;;;6.45;2.42;;;33.00;99.90;;;;;;5049159;28;20273;-78
2021/06/26 11:21:04;;;;;;;13.25;3.30;;;33.10;99.90;;;;;;5065354;28;20190;-78
2021/06/26 11:23:30;;;;;;;6.13;2.55;;;33.20;99.90;;;;;;5059941;28;20183;-77
2021/06/26 11:26:05;;;;;;;9.35;2.67;;;33.00;99.80;;;;;;5080144;28;20639;-79
2021/06/26 11:29:05;;;;;;;5.00;2.72;;;33.00;99.90;;;;;;5082225;28;20208;-76
2021/06/26 11:31:34;;;;;;;7.07;2.80;;;33.10;99.90;;;;;;5039992;28;20198;-78
2021/06/26 11:34:11;;;;;;;7.20;2.70;;;33.00;99.90;;;;;;5081237;28;20194;-78
2021/06/26 11:37:00;;;;;;;8.10;3.20;;;33.00;99.90;;;;;;5066452;28;20186;-77
2021/06/26 11:39:27;;;;;;;8.00;3.00;;;33.00;99.90;;;;;;5060027;28;20190;-77
2021/06/26 11:41:54;;;;;;;10.80;3.28;;;32.90;99.90;;;;;;5058875;28;20187;-78
2021/06/26 11:44:51;;;;;;;7.60;2.92;;;33.00;99.90;;;;;;5059745;28;20659;-79
2021/06/26 11:47:17;;;;;;;8.45;3.20;;;32.90;99.90;;;;;;5060113;28;20194;-78
2021/06/26 11:49:46;;;;;;;9.20;3.03;;;32.90;99.90;;;;;;5046961;28;20278;-78
2021/06/26 11:53:08;;;;;;;9.75;3.10;;;32.90;99.90;;;;;;5051952;28;20383;-78
2021/06/26 11:56:00;;;;;;;9.32;2.53;;;32.60;99.90;;;;;;5056491;28;20186;-77
2021/06/26 11:58:53;;;;;;;11.55;2.60;;;32.90;99.90;;;;;;5047002;28;20277;-79
2021/06/26 12:01:26;;;;;;;11.70;2.63;;;33.00;97.70;;;;;;5045136;28;20203;-78
2021/06/26 12:03:53;;;;;;;11.90;2.38;;;32.90;98.80;;;;;;5060011;28;20198;-79
2021/06/26 12:06:20;;;;;;;7.22;2.72;;;32.50;97.60;;;;;;5061867;28;20220;-78
2021/06/26 12:08:57;;;;;;;12.68;2.97;;;32.50;97.50;;;;;;5047753;28;20885;-78
2021/06/26 12:11:30;;;;;;;6.28;2.55;;;32.90;96.80;;;;;;5077663;28;20175;-78
2021/06/26 12:14:04;;;;;;;9.20;2.58;;;33.10;97.30;;;;;;5066249;28;20183;-78
2021/06/26 12:16:37;;;;;;;6.80;3.03;;;33.10;95.60;;;;;;5064261;28;20186;-79
2021/06/26 12:19:10;;;;;;;7.05;2.97;;;33.30;99.90;;;;;;5073395;28;20182;-77
2021/06/26 12:21:47;;;;;;;7.60;2.80;;;33.10;99.90;;;;;;5059427;28;20240;-78
2021/06/26 12:24:35;;;;;;;4.13;2.20;;;33.00;96.50;;;;;;5048294;28;20190;-76
2021/06/26 12:27:10;;;;;;;9.35;2.75;;;32.60;97.00;;;;;;5064439;28;20255;-77
2021/06/26 12:29:40;;;;;;;10.00;2.47;;;32.70;96.90;;;;;;5062941;28;20730;-77
2021/06/26 12:32:07;;;;;;;7.85;2.50;;;32.60;97.50;;;;;;5063725;28;20655;-78
2021/06/26 12:34:46;;;;;;;9.98;2.80;;;33.00;95.50;;;;;;5082367;28;20257;-75
2021/06/26 12:37:13;;;;;;;7.97;2.75;;;33.00;98.60;;;;;;5061169;28;20666;-75
2021/06/26 12:39:39;;;;;;;4.82;2.40;;;33.00;98.60;;;;;;5061715;28;20218;-79
2021/06/26 12:42:09;;;;;;;8.05;2.92;;;33.00;95.40;;;;;;5059947;28;21018;-75
2021/06/26 12:44:39;;;;;;;10.25;2.60;;;32.90;95.50;;;;;;5060666;28;20198;-79
2021/06/26 12:47:06;;;;;;;12.25;2.97;;;33.10;95.20;;;;;;5065138;28;20199;-75
2021/06/26 12:49:39;;;;;;;12.23;2.78;;;33.00;97.90;;;;;;5048207;28;20211;-79
2021/06/26 12:52:15;;;;;;;10.02;3.15;;;32.90;97.60;;;;;;5062935;28;20240;-79
2021/06/26 12:54:52;;;;;;;11.85;2.85;;;32.90;97.60;;;;;;5047910;28;20189;-76
2021/06/26 12:57:21;;;;;;;9.23;3.45;;;32.80;98.70;;;;;;5061168;28;20623;-76
2021/06/26 12:59:48;;;;;;;9.45;2.97;;;32.90;99.50;;;;;;5062120;28;20240;-77